createdAt,value
2023-04-01T00:00:56.936Z,96167.41
2023-04-01T00:04:58.962Z,96162.56
2023-04-01T00:09:01.148Z,96169.06
2023-04-01T00:13:03.261Z,96165.72
2023-04-01T00:17:05.329Z,96158.41
2023-04-01T00:21:07.652Z,96160.69
2023-04-01T00:25:10.302Z,96159.38
2023-04-01T00:29:12.398Z,96158.22
2023-04-01T00:33:15.270Z,96160.31
2023-04-01T00:37:17.409Z,96160.47
2023-04-01T00:41:21.986Z,96156.28
2023-04-01T00:45:29.183Z,96150.44
2023-04-01T00:49:37.984Z,96160.34
2023-04-01T00:53:44.202Z,96160.22
2023-04-01T00:57:49.116Z,96157.53
2023-04-01T01:01:51.342Z,96156.69
2023-04-01T01:06:09.616Z,96152.50
2023-04-01T01:10:24.214Z,96168.81
2023-04-01T01:14:49.183Z,96167.34
2023-04-01T01:18:58.956Z,96161.28
2023-04-01T01:23:39.203Z,96157.91
2023-04-01T01:27:46.237Z,96148.44
2023-04-01T01:32:08.291Z,96156.28
2023-04-01T01:36:14.882Z,96156.28
2023-04-01T01:40:18.272Z,96160.84
2023-04-01T01:44:22.063Z,96151.44
2023-04-01T01:48:27.530Z,96160.22
2023-04-01T01:52:30.330Z,96157.72
2023-04-01T01:56:36.133Z,96150.06
2023-04-01T02:00:39.084Z,96152.69
2023-04-01T02:04:44.720Z,96146.81
2023-04-01T02:09:08.750Z,96147.03
2023-04-01T02:13:21.463Z,96145.34
2023-04-01T02:17:27.561Z,96142.00
2023-04-01T02:21:33.278Z,96143.91
2023-04-01T02:25:38.278Z,96142.22
2023-04-01T02:29:40.634Z,96131.97
2023-04-01T02:33:43.514Z,96135.81
2023-04-01T02:37:47.820Z,96144.50
2023-04-01T02:41:49.858Z,96140.13
2023-04-01T02:45:51.885Z,96133.22
2023-04-01T02:49:59.412Z,96127.13
2023-04-01T02:54:02.210Z,96124.84
2023-04-01T02:58:04.906Z,96125.88
2023-04-01T03:02:07.878Z,96126.81
2023-04-01T03:06:12.714Z,96126.91
2023-04-01T03:10:15.020Z,96132.97
2023-04-01T03:14:17.179Z,96131.41
2023-04-01T03:18:19.823Z,96136.72
2023-04-01T03:22:22.026Z,96128.25
2023-04-01T03:26:24.084Z,96138.72
2023-04-01T03:30:27.603Z,96134.91
2023-04-01T03:34:29.696Z,96144.97
2023-04-01T03:38:32.044Z,96141.59
2023-04-01T03:42:34.329Z,96133.91
2023-04-01T03:46:36.573Z,96132.44
2023-04-01T03:50:38.757Z,96145.69
2023-04-01T03:54:41.047Z,96147.69
2023-04-01T03:58:43.318Z,96137.72
2023-04-01T04:02:46.451Z,96143.16
2023-04-01T04:06:54.277Z,96150.97
2023-04-01T04:10:57.959Z,96129.34
2023-04-01T04:15:00.692Z,96142.22
2023-04-01T04:19:03.514Z,96129.34
2023-04-01T04:23:05.632Z,96150.22
2023-04-01T04:27:07.750Z,96156.28
2023-04-01T04:31:13.254Z,96147.53
2023-04-01T04:35:17.382Z,96144.06
2023-04-01T04:39:19.588Z,96141.47
2023-04-01T04:43:22.664Z,96139.69
2023-04-01T04:47:24.923Z,96138.13
2023-04-01T04:51:27.166Z,96145.97
2023-04-01T04:55:29.428Z,96141.75
2023-04-01T04:59:51.369Z,96131.59
2023-04-01T05:04:01.404Z,96156.72
2023-04-01T05:08:03.490Z,96147.06
2023-04-01T05:12:05.978Z,96155.66
2023-04-01T05:16:40.487Z,96141.03
2023-04-01T05:20:50.925Z,96148.75
2023-04-01T05:24:53.661Z,96145.97
2023-04-01T05:28:55.820Z,96144.81
2023-04-01T05:32:57.972Z,96144.72
2023-04-01T05:37:00.335Z,96144.63
2023-04-01T05:41:04.234Z,96147.78
2023-04-01T05:45:09.583Z,96149.47
2023-04-01T05:49:37.209Z,96147.56
2023-04-01T05:53:40.060Z,96136.19
2023-04-01T05:57:42.263Z,96143.81
2023-04-01T06:01:44.799Z,96146.53
2023-04-01T06:05:47.417Z,96142.88
2023-04-01T06:09:49.874Z,96136.50
2023-04-01T06:14:06.191Z,96150.97
2023-04-01T06:18:37.145Z,96140.28
2023-04-01T06:23:13.494Z,96141.59
2023-04-01T06:28:03.921Z,96145.56
2023-04-01T06:32:27.155Z,96143.06
2023-04-01T06:36:49.900Z,96145.38
2023-04-01T06:41:10.416Z,96145.59
2023-04-01T06:45:32.323Z,96147.06
2023-04-01T06:50:06.065Z,96153.28
2023-04-01T06:54:38.511Z,96147.44
2023-04-01T06:59:01.082Z,96155.38
2023-04-01T07:03:17.163Z,96148.06
2023-04-01T07:07:33.617Z,96149.16
2023-04-01T07:11:39.765Z,96150.53
2023-04-01T07:16:21.520Z,96156.59
2023-04-01T07:20:36.159Z,96158.16
2023-04-01T07:24:43.982Z,96162.75
2023-04-01T07:28:46.317Z,96154.44
2023-04-01T07:33:16.245Z,96164.69
2023-04-01T07:37:28.286Z,96161.13
2023-04-01T07:41:45.690Z,96161.22
2023-04-01T07:46:05.371Z,96165.78
2023-04-01T07:50:28.644Z,96170.75
2023-04-01T07:54:47.478Z,96171.38
2023-04-01T07:58:54.891Z,96175.22
2023-04-01T08:03:56.496Z,96186.19
2023-04-01T08:08:17.394Z,96181.88
2023-04-01T08:12:53.257Z,96183.28
2023-04-01T08:18:11.163Z,96192.06
2023-04-01T08:22:24.773Z,96201.72
2023-04-01T08:26:43.691Z,96197.53
2023-04-01T08:30:56.431Z,96201.13
2023-04-01T08:35:16.764Z,96199.72
2023-04-01T08:39:31.003Z,96203.31
2023-04-01T08:43:56.043Z,96216.25
2023-04-01T08:48:22.128Z,96211.84
2023-04-01T08:52:48.121Z,96205.97
2023-04-01T08:57:11.186Z,96208.03
2023-04-01T09:01:32.858Z,96213.63
2023-04-01T09:06:13.138Z,96212.22
2023-04-01T09:10:41.437Z,96222.41
2023-04-01T09:15:28.155Z,96219.31
2023-04-01T09:20:03.968Z,96225.19
2023-04-01T09:24:43.261Z,96228.91
2023-04-01T09:29:03.236Z,96227.69
2023-04-01T09:33:17.486Z,96230.91
2023-04-01T09:37:38.938Z,96240.84
2023-04-01T09:42:13.794Z,96236.03
2023-04-01T09:46:37.062Z,96240.69
2023-04-01T09:51:04.049Z,96236.13
2023-04-01T09:55:56.287Z,96244.25
2023-04-01T10:00:35.017Z,96240.06
2023-04-01T10:04:56.137Z,96257.44
2023-04-01T10:09:33.120Z,96263.06
2023-04-01T10:13:57.791Z,96252.53
2023-04-01T10:18:05.933Z,96255.53
2023-04-01T10:22:37.498Z,96256.44
2023-04-01T10:26:59.400Z,96260.06
2023-04-01T10:31:40.422Z,96254.81
2023-04-01T10:36:12.156Z,96261.00
2023-04-01T10:40:40.024Z,96261.00
2023-04-01T10:45:45.648Z,96259.28
2023-04-01T10:50:10.887Z,96250.88
2023-04-01T10:54:37.402Z,96255.28
2023-04-01T10:59:08.604Z,96258.38
2023-04-01T11:03:32.243Z,96252.41
2023-04-01T11:08:15.899Z,96265.91
2023-04-01T11:12:24.103Z,96269.06
2023-04-01T11:17:03.247Z,96279.50
2023-04-01T11:21:37.972Z,96272.66
2023-04-01T11:26:17.649Z,96276.03
2023-04-01T11:31:01.501Z,96284.91
2023-04-01T11:35:17.012Z,96282.38
2023-04-01T11:39:31.207Z,96292.78
2023-04-01T11:44:16.007Z,96294.91
2023-04-01T11:49:03.880Z,96303.78
2023-04-01T11:53:23.593Z,96302.59
2023-04-01T11:57:31.942Z,96310.72
2023-04-01T12:01:49.041Z,96313.13
2023-04-01T12:05:53.799Z,96320.41
2023-04-01T12:10:38.994Z,96317.44
2023-04-01T12:14:53.395Z,96320.75
2023-04-01T12:19:02.671Z,96319.22
2023-04-01T12:23:20.004Z,96322.19
2023-04-01T12:27:46.614Z,96317.53
2023-04-01T12:32:01.476Z,96328.88
2023-04-01T12:36:28.299Z,96327.84
2023-04-01T12:40:36.204Z,96319.03
2023-04-01T12:45:02.118Z,96321.00
2023-04-01T12:49:24.314Z,96321.94
2023-04-01T12:53:35.034Z,96331.16
2023-04-01T12:58:18.215Z,96339.09
2023-04-01T13:02:48.364Z,96327.13
2023-04-01T13:07:27.801Z,96332.00
2023-04-01T13:11:32.608Z,96331.28
2023-04-01T13:15:52.297Z,96344.03
2023-04-01T13:20:08.277Z,96347.03
2023-04-01T13:24:29.532Z,96343.81
2023-04-01T13:28:41.371Z,96349.34
2023-04-01T13:33:08.531Z,96346.56
2023-04-01T13:37:50.517Z,96340.97
2023-04-01T13:41:55.613Z,96350.88
2023-04-01T13:46:03.751Z,96354.47
2023-04-01T13:50:24.660Z,96345.56
2023-04-01T13:55:03.762Z,96351.06
2023-04-01T13:59:16.418Z,96363.97
2023-04-01T14:03:51.237Z,96359.34
2023-04-01T14:08:05.414Z,96367.78
2023-04-01T14:12:41.119Z,96366.81
2023-04-01T14:17:02.061Z,96372.16
2023-04-01T14:21:34.290Z,96366.81
2023-04-01T14:26:04.797Z,96371.00
2023-04-01T14:30:33.580Z,96370.16
2023-04-01T14:35:18.031Z,96368.91
2023-04-01T14:39:35.504Z,96374.41
2023-04-01T14:43:43.671Z,96372.41
2023-04-01T14:47:57.028Z,96376.47
2023-04-01T14:52:12.422Z,96376.66
2023-04-01T14:56:38.684Z,96388.22
2023-04-01T15:01:05.740Z,96396.28
2023-04-01T15:05:08.117Z,96399.38
2023-04-01T15:09:36.094Z,96408.25
2023-04-01T15:13:59.366Z,96403.97
2023-04-01T15:18:36.662Z,96390.41
2023-04-01T15:22:41.798Z,96395.56
2023-04-01T15:26:59.835Z,96403.88
2023-04-01T15:31:18.616Z,96415.50
2023-04-01T15:35:36.706Z,96425.38
2023-04-01T15:40:15.987Z,96439.81
2023-04-01T15:44:53.442Z,96442.69
2023-04-01T15:49:10.056Z,96444.13
2023-04-01T15:53:17.977Z,96444.03
2023-04-01T15:57:41.723Z,96456.34
2023-04-01T16:02:14.718Z,96470.00
2023-04-01T16:06:44.846Z,96464.69
2023-04-01T16:11:09.701Z,96465.91
2023-04-01T16:15:26.997Z,96480.44
2023-04-01T16:19:42.333Z,96499.09
2023-04-01T16:24:01.736Z,96505.63
2023-04-01T16:28:29.568Z,96494.50
2023-04-01T16:32:56.084Z,96505.63
2023-04-01T16:37:20.869Z,96495.88
2023-04-01T16:41:33.258Z,96505.53
2023-04-01T16:45:44.237Z,96523.78
2023-04-01T16:49:57.509Z,96519.25
2023-04-01T16:54:07.971Z,96530.19
2023-04-01T16:58:12.263Z,96533.13
2023-04-01T17:02:21.454Z,96536.03
2023-04-01T17:06:40.916Z,96543.56
2023-04-01T17:10:51.237Z,96551.75
2023-04-01T17:15:10.865Z,96549.03
2023-04-01T17:19:43.491Z,96555.13
2023-04-01T17:24:06.449Z,96562.25
2023-04-01T17:28:27.398Z,96571.53
2023-04-01T17:33:06.693Z,96574.16
2023-04-01T17:37:46.630Z,96583.44
2023-04-01T17:42:10.495Z,96582.59
2023-04-01T17:46:40.500Z,96584.94
2023-04-01T17:50:58.998Z,96591.66
2023-04-01T17:55:38.607Z,96603.84
2023-04-01T17:59:55.500Z,96605.28
2023-04-01T18:04:03.978Z,96615.16
2023-04-01T18:08:28.010Z,96621.25
2023-04-01T18:13:19.289Z,96638.69
2023-04-01T18:17:46.160Z,96656.50
2023-04-01T18:21:53.110Z,96673.78
2023-04-01T18:26:09.184Z,96665.75
2023-04-01T18:30:11.132Z,96670.41
2023-04-01T18:34:41.446Z,96678.38
2023-04-01T18:39:02.944Z,96688.88
2023-04-01T18:43:42.447Z,96699.66
2023-04-01T18:47:52.506Z,96703.00
2023-04-01T18:52:00.306Z,96706.66
2023-04-01T18:56:04.593Z,96720.06
2023-04-01T19:00:17.173Z,96725.25
2023-04-01T19:04:34.936Z,96732.72
2023-04-01T19:08:40.217Z,96732.56
2023-04-01T19:12:56.224Z,96741.41
2023-04-01T19:17:10.930Z,96748.13
2023-04-01T19:22:00.383Z,96748.06
2023-04-01T19:26:07.456Z,96760.97
2023-04-01T19:30:15.322Z,96761.50
2023-04-01T19:34:29.461Z,96759.72
2023-04-01T19:38:40.115Z,96767.69
2023-04-01T19:42:44.982Z,96769.50
2023-04-01T19:46:52.760Z,96780.06
2023-04-01T19:51:08.406Z,96777.72
2023-04-01T19:55:20.730Z,96790.06
2023-04-01T19:59:44.127Z,96786.72
2023-04-01T20:03:56.962Z,96797.66
2023-04-01T20:08:25.222Z,96809.47
2023-04-01T20:12:52.195Z,96814.72
2023-04-01T20:17:02.280Z,96810.22
2023-04-01T20:21:17.741Z,96822.94
2023-04-01T20:25:27.420Z,96825.94
2023-04-01T20:29:44.263Z,96833.03
2023-04-01T20:34:09.555Z,96836.59
2023-04-01T20:38:28.541Z,96843.16
2023-04-01T20:42:57.238Z,96844.34
2023-04-01T20:47:34.751Z,96848.16
2023-04-01T20:51:41.727Z,96855.97
2023-04-01T20:56:05.246Z,96856.69
2023-04-01T21:00:29.970Z,96861.84
2023-04-01T21:05:11.302Z,96864.16
2023-04-01T21:09:50.050Z,96873.06
2023-04-01T21:14:32.031Z,96874.25
2023-04-01T21:19:09.857Z,96875.91
2023-04-01T21:23:24.026Z,96890.34
2023-04-01T21:27:44.887Z,96889.84
2023-04-01T21:32:16.693Z,96892.16
2023-04-01T21:36:46.437Z,96899.44
2023-04-01T21:41:03.395Z,96907.03
2023-04-01T21:45:34.004Z,96916.16
2023-04-01T21:49:54.773Z,96922.31
2023-04-01T21:54:32.968Z,96922.31
2023-04-01T21:59:06.438Z,96935.31
2023-04-01T22:03:27.843Z,96932.28
2023-04-01T22:07:34.478Z,96941.47
2023-04-01T22:12:07.098Z,96937.19
2023-04-01T22:16:26.634Z,96950.41
2023-04-01T22:20:38.054Z,96953.88
2023-04-01T22:24:42.949Z,96954.72
2023-04-01T22:29:19.961Z,96962.38
2023-04-01T22:33:43.849Z,96957.66
2023-04-01T22:38:02.609Z,96968.56
2023-04-01T22:42:27.552Z,96973.44
2023-04-01T22:46:48.164Z,96973.94
2023-04-01T22:51:18.883Z,96980.88
2023-04-01T22:55:29.844Z,96974.13
2023-04-01T22:59:38.799Z,96980.94
2023-04-01T23:03:43.108Z,96985.78
2023-04-01T23:08:08.851Z,96986.63
2023-04-01T23:12:14.684Z,97001.81
2023-04-01T23:16:19.448Z,96997.09
2023-04-01T23:20:33.674Z,97003.25
2023-04-01T23:25:02.182Z,97004.34
2023-04-01T23:29:06.915Z,97012.72
2023-04-01T23:33:21.352Z,97013.19
2023-04-01T23:37:24.268Z,97023.59
2023-04-01T23:41:32.692Z,97022.56
2023-04-01T23:45:34.937Z,97027.97
2023-04-01T23:49:42.493Z,97037.44
2023-04-01T23:53:47.201Z,97033.63
2023-04-01T23:58:07.304Z,97038.34
